createdAt,value
2017-06-06T03:49:48.479Z,86.14
2017-06-06T03:50:29.561Z,85.66
2017-06-06T03:51:10.509Z,86.43
2017-06-06T03:51:50.943Z,85.85
2017-06-06T03:52:31.685Z,85.94
2017-06-06T03:53:12.118Z,85.38
2017-06-06T03:53:52.508Z,85.47
2017-06-06T03:54:32.971Z,85.38
2017-06-06T03:55:15.373Z,85.38
2017-06-06T03:55:55.733Z,85.38
2017-06-06T03:56:36.140Z,85.28
2017-06-06T03:57:17.003Z,85.38
2017-06-06T03:57:59.031Z,85.18
2017-06-06T03:58:39.478Z,85.38
2017-06-06T03:59:19.877Z,85.28
2017-06-06T04:00:00.688Z,85.66
2017-06-06T04:00:40.973Z,85.75
2017-06-06T04:01:21.469Z,85.57
2017-06-06T04:02:01.879Z,85.57
2017-06-06T04:02:42.306Z,85.75
2017-06-06T04:03:22.778Z,85.66
2017-06-06T04:04:03.220Z,85.66
2017-06-06T04:04:43.605Z,85.66
2017-06-06T04:05:24.051Z,85.75
2017-06-06T04:06:04.461Z,85.66
2017-06-06T04:06:44.864Z,85.57
2017-06-06T04:07:28.177Z,85.57
2017-06-06T04:08:08.620Z,85.85
2017-06-06T04:08:48.968Z,85.66
2017-06-06T04:09:29.420Z,85.75
2017-06-06T04:10:09.823Z,85.28
2017-06-06T04:10:50.261Z,85.94
2017-06-06T04:11:30.683Z,85.75
2017-06-06T04:12:11.052Z,85.85
2017-06-06T04:12:51.501Z,85.75
2017-06-06T04:13:31.904Z,86.04
2017-06-06T04:14:12.323Z,86.04
2017-06-06T04:14:52.774Z,86.04
2017-06-06T04:15:33.296Z,86.14
2017-06-06T04:16:13.653Z,86.14
2017-06-06T04:16:54.062Z,85.57
2017-06-06T04:17:34.510Z,85.85
2017-06-06T04:18:14.972Z,86.14
2017-06-06T04:18:55.374Z,86.14
2017-06-06T04:19:35.746Z,86.04
2017-06-06T04:20:16.179Z,86.04
2017-06-06T04:20:56.636Z,85.85
2017-06-06T04:21:36.994Z,85.75
2017-06-06T04:22:17.410Z,85.85
2017-06-06T04:22:57.808Z,85.85
2017-06-06T04:23:38.348Z,85.89
2017-06-06T04:24:18.796Z,85.71
2017-06-06T04:24:59.169Z,85.75
2017-06-06T04:25:39.569Z,85.71
2017-06-06T04:26:20.029Z,85.71
2017-06-06T04:27:00.440Z,85.51
2017-06-06T04:27:40.801Z,85.61
2017-06-06T04:28:21.178Z,85.71
2017-06-06T04:29:01.658Z,85.8
2017-06-06T04:29:42.041Z,85.61
2017-06-06T04:30:22.412Z,85.22
2017-06-06T04:31:02.833Z,85.32
2017-06-06T04:31:43.468Z,85.22
2017-06-06T04:32:23.859Z,85.13
2017-06-06T04:33:04.299Z,85.51
2017-06-06T04:33:44.666Z,85.22
2017-06-06T04:34:25.083Z,85.32
2017-06-06T04:35:05.522Z,85.22
2017-06-06T04:35:45.888Z,85.41
2017-06-06T04:36:26.333Z,85.22
2017-06-06T04:37:06.727Z,85.32
2017-06-06T04:37:47.125Z,85.51
2017-06-06T04:38:27.550Z,85.61
2017-06-06T04:39:07.967Z,85.22
2017-06-06T04:39:48.380Z,85.51
2017-06-06T04:40:28.772Z,85.13
2017-06-06T04:41:11.755Z,85.32
2017-06-06T04:41:52.140Z,85.55
2017-06-06T04:42:32.575Z,85.41
2017-06-06T04:43:12.926Z,85.55
2017-06-06T04:43:53.468Z,85.22
2017-06-06T04:44:33.803Z,85.27
2017-06-06T04:45:14.264Z,85.27
2017-06-06T04:45:54.632Z,85.36
2017-06-06T04:46:35.116Z,85.36
2017-06-06T04:47:16.449Z,84.79
2017-06-06T04:47:56.842Z,85.17
2017-06-06T04:48:37.229Z,84.79
2017-06-06T04:49:17.598Z,84.88
2017-06-06T04:49:58.021Z,84.69
2017-06-06T04:50:38.412Z,84.98
2017-06-06T04:51:18.841Z,84.98
2017-06-06T04:51:59.262Z,84.69
2017-06-06T04:52:39.667Z,84.79
2017-06-06T04:53:20.110Z,85.08
2017-06-06T04:54:00.471Z,84.88
2017-06-06T04:54:40.917Z,84.59
2017-06-06T04:55:21.322Z,84.98
2017-06-06T04:56:01.702Z,84.69
2017-06-06T04:56:42.152Z,84.88
2017-06-06T04:57:22.597Z,84.79
2017-06-06T04:58:02.990Z,84.5
2017-06-06T04:58:43.372Z,84.59
2017-06-06T04:59:23.841Z,84.59
2017-06-06T05:00:04.194Z,84.55
2017-06-06T05:00:44.682Z,84.79
2017-06-06T05:01:25.074Z,84.45
2017-06-06T05:02:05.473Z,84.64
2017-06-06T05:02:45.913Z,84.55
2017-06-06T05:03:26.284Z,84.55
2017-06-06T05:04:06.716Z,84.64
2017-06-06T05:04:47.304Z,84.64
2017-06-06T05:05:27.631Z,84.64
2017-06-06T05:06:08.075Z,84.74
2017-06-06T05:06:48.512Z,84.92
2017-06-06T05:07:28.936Z,84.83
2017-06-06T05:08:09.339Z,84.39
2017-06-06T05:08:49.707Z,84.58
2017-06-06T05:09:30.135Z,84.11
2017-06-06T05:10:10.541Z,83.82
2017-06-06T05:10:50.975Z,84.01
2017-06-06T05:11:31.385Z,84.11
2017-06-06T05:12:13.693Z,83.63
2017-06-06T05:12:54.089Z,84.11
2017-06-06T05:13:34.484Z,84.01
2017-06-06T05:14:15.897Z,83.53
2017-06-06T05:14:56.287Z,83.67
2017-06-06T05:15:36.948Z,83.67
2017-06-06T05:16:17.360Z,83.19
2017-06-06T05:16:58.625Z,83.38
2017-06-06T05:17:38.988Z,83.58
2017-06-06T05:18:19.464Z,83.19
2017-06-06T05:18:59.852Z,83.48
2017-06-06T05:19:40.269Z,82.9
2017-06-06T05:20:20.657Z,82.81
2017-06-06T05:21:01.116Z,83
2017-06-06T05:21:41.591Z,83
2017-06-06T05:22:21.957Z,83
2017-06-06T05:23:02.395Z,83
2017-06-06T05:23:42.826Z,82.81
2017-06-06T05:24:23.217Z,83
2017-06-06T05:25:03.667Z,83.48
2017-06-06T05:25:44.068Z,83.48
2017-06-06T05:26:24.486Z,83.38
2017-06-06T05:27:04.893Z,83.34
2017-06-06T05:27:45.330Z,83.63
2017-06-06T05:28:26.265Z,83.34
2017-06-06T05:29:06.664Z,83.15
2017-06-06T05:29:47.082Z,83.25
2017-06-06T05:30:27.517Z,83.34
2017-06-06T05:31:07.925Z,83.25
2017-06-06T05:31:48.356Z,83.25
2017-06-06T05:32:28.744Z,83.38
2017-06-06T05:33:09.712Z,83.38
2017-06-06T05:33:50.130Z,83.38
2017-06-06T05:34:30.526Z,83.19
2017-06-06T05:35:10.929Z,83.67
2017-06-06T05:35:51.361Z,83.38
2017-06-06T05:36:31.812Z,83.48
2017-06-06T05:37:12.195Z,82.81
2017-06-06T05:37:52.672Z,82.71
2017-06-06T05:38:33.035Z,83
2017-06-06T05:39:13.484Z,83.19
2017-06-06T05:39:53.959Z,83.19
2017-06-06T05:40:35.066Z,83.09
2017-06-06T05:41:17.410Z,82.9
2017-06-06T05:41:57.812Z,82.71
2017-06-06T05:42:39.030Z,83.04
2017-06-06T05:43:19.473Z,82.56
2017-06-06T05:43:59.872Z,82.56
2017-06-06T05:44:40.260Z,82.37
2017-06-06T05:45:21.382Z,82.46
2017-06-06T05:46:01.733Z,81.98
2017-06-06T05:46:42.202Z,82.08
2017-06-06T05:47:22.586Z,81.31
2017-06-06T05:48:03.030Z,81.45
2017-06-06T05:48:43.459Z,81.84
2017-06-06T05:49:23.934Z,81.07
2017-06-06T05:50:04.317Z,81.16
2017-06-06T05:50:45.539Z,81.26
2017-06-06T05:51:27.297Z,81.16
2017-06-06T05:52:07.702Z,81.35
2017-06-06T05:52:49.735Z,80.97
2017-06-06T05:53:30.105Z,80.58
2017-06-06T05:54:11.411Z,81.16
2017-06-06T05:54:54.104Z,80.01
2017-06-06T05:55:33.747Z,80.3
2017-06-06T05:56:14.120Z,80.4
2017-06-06T05:56:54.581Z,80.3
2017-06-06T05:57:35.001Z,80.2
2017-06-06T05:58:16.719Z,80.2
2017-06-06T05:58:58.805Z,80.24
2017-06-06T05:59:39.193Z,80.15
2017-06-06T06:00:20.175Z,80.43
2017-06-06T06:01:00.694Z,80.15
2017-06-06T06:01:41.975Z,79.86
2017-06-06T06:02:23.211Z,80.15
2017-06-06T06:03:03.610Z,79.96
2017-06-06T06:03:44.039Z,79.38
2017-06-06T06:04:24.452Z,79.19
2017-06-06T06:05:04.901Z,79.38
2017-06-06T06:05:46.756Z,79.28
2017-06-06T06:06:27.161Z,79.28
2017-06-06T06:07:08.400Z,79.22
2017-06-06T06:07:50.299Z,78.94
2017-06-06T06:10:04.051Z,79.13
2017-06-06T06:10:45.279Z,78.94
2017-06-06T06:11:26.249Z,78.84
2017-06-06T06:12:06.678Z,78.94
2017-06-06T06:12:47.030Z,78.65
2017-06-06T06:13:27.465Z,78.65
2017-06-06T06:14:07.909Z,78.75
2017-06-06T06:14:48.811Z,78.45
2017-06-06T06:15:29.235Z,78.36
2017-06-06T06:16:09.608Z,78.55
2017-06-06T06:16:50.040Z,78.75
2017-06-06T06:17:33.721Z,78.27
2017-06-06T06:18:14.990Z,78.17
2017-06-06T06:18:55.969Z,78.27
2017-06-06T06:19:37.221Z,78.17
2017-06-06T06:20:17.636Z,78.17
2017-06-06T06:20:58.053Z,77.98
2017-06-06T06:21:40.411Z,77.88
2017-06-06T06:22:20.796Z,78.08
2017-06-06T06:23:02.108Z,77.98
2017-06-06T06:24:50.384Z,77.78
2017-06-06T06:25:32.593Z,77.46
2017-06-06T06:26:13.044Z,77.59
2017-06-06T06:26:53.610Z,77.59
2017-06-06T06:27:36.607Z,77.4
2017-06-06T06:29:50.346Z,77.46
2017-06-06T06:30:30.667Z,77.56
2017-06-06T06:31:11.046Z,77.56
2017-06-06T06:31:51.518Z,77.31
2017-06-06T06:32:31.906Z,77.36
2017-06-06T06:33:12.354Z,77.11
2017-06-06T06:33:54.071Z,77.11
2017-06-06T06:34:34.653Z,77.01
2017-06-06T06:35:16.064Z,77.11
2017-06-06T06:35:56.492Z,77.31
2017-06-06T06:36:36.926Z,77.11
2017-06-06T06:37:17.230Z,76.92
2017-06-06T06:37:57.696Z,76.54
2017-06-06T06:38:38.824Z,75.96
2017-06-06T06:39:20.003Z,76.34
2017-06-06T06:40:02.954Z,76.15
2017-06-06T06:40:43.549Z,76.34
2017-06-06T06:41:23.957Z,76.44
2017-06-06T06:42:04.539Z,75.9
2017-06-06T06:42:45.055Z,76
2017-06-06T06:43:25.438Z,75.81
2017-06-06T06:44:05.896Z,75.57
2017-06-06T06:44:47.066Z,75.71
2017-06-06T06:45:27.452Z,75.81
2017-06-06T06:46:09.720Z,75.52
2017-06-06T06:46:50.144Z,75.62
2017-06-06T06:47:31.174Z,75.23
2017-06-06T06:48:11.554Z,75.37
2017-06-06T06:48:52.024Z,75.23
2017-06-06T06:49:32.516Z,75.56
2017-06-06T06:50:12.882Z,75.07
2017-06-06T06:50:53.292Z,75.27
2017-06-06T06:51:35.214Z,74.4
2017-06-06T06:52:16.983Z,74.98
2017-06-06T06:52:57.383Z,74.54
2017-06-06T06:53:38.009Z,74.44
2017-06-06T06:54:18.485Z,74.25
2017-06-06T06:55:01.449Z,74.05
2017-06-06T06:55:41.902Z,73.67
2017-06-06T06:56:23.213Z,73.09
2017-06-06T06:57:03.628Z,73.19
2017-06-06T06:57:44.024Z,73.28
2017-06-06T06:58:24.465Z,73.28
2017-06-06T06:59:05.771Z,73.22
2017-06-06T06:59:46.281Z,73.22
2017-06-06T07:00:26.680Z,72.94
2017-06-06T07:01:07.077Z,72.94
2017-06-06T07:01:47.704Z,72.17
2017-06-06T07:02:28.574Z,72.45
2017-06-06T07:03:08.983Z,72.65
2017-06-06T07:03:49.357Z,72.55
2017-06-06T07:04:30.714Z,72.26
2017-06-06T07:05:11.210Z,72.65
2017-06-06T07:05:51.539Z,72.55
2017-06-06T07:06:31.923Z,72.26
2017-06-06T07:07:12.409Z,72.55
2017-06-06T07:07:52.832Z,72.74
2017-06-06T07:08:33.314Z,72.55
2017-06-06T07:09:13.772Z,72.36
2017-06-06T07:09:54.788Z,72.07
2017-06-06T07:10:35.278Z,71.88
2017-06-06T07:11:17.520Z,72.01
2017-06-06T07:11:59.024Z,72.01
2017-06-06T07:12:39.449Z,71.72
2017-06-06T07:13:20.633Z,71.66
2017-06-06T07:14:02.173Z,71.37
2017-06-06T07:18:04.558Z,69.87
2017-06-06T07:19:09.860Z,69.38
2017-06-06T07:20:03.247Z,68.9
2017-06-06T07:20:49.975Z,68.9
2017-06-06T07:25:26.938Z,68.04
2017-06-06T07:26:13.886Z,67.49
2017-06-06T07:28:04.773Z,66.08
2017-06-06T07:29:01.484Z,65.34
2017-06-06T07:35:12.885Z,63.79
2017-06-06T07:36:03.064Z,63.4
2017-06-06T07:36:56.822Z,63.47
2017-06-06T07:38:57.534Z,64.63
2017-06-06T07:43:27.293Z,63.01
2017-06-06T07:44:19.370Z,61.85
2017-06-06T07:46:29.300Z,60.98
2017-06-06T07:47:11.284Z,60.62
2017-06-06T07:51:02.410Z,60.82
2017-06-06T07:52:01.320Z,60.99
2017-06-06T07:52:52.296Z,60.79
2017-06-06T07:53:56.941Z,61.83
2017-06-06T07:54:52.065Z,62.12
2017-06-06T07:55:55.538Z,61.86
2017-06-06T08:03:15.339Z,59.11
2017-06-06T09:03:51.773Z,63.76
2017-06-06T09:04:33.531Z,63.38
2017-06-06T09:05:14.050Z,63.48
2017-06-06T09:05:54.586Z,63.95
2017-06-06T09:06:35.084Z,63.67
2017-06-06T09:08:49.545Z,63.76
2017-06-06T09:09:33.437Z,63.86
2017-06-06T09:10:14.500Z,64.05
2017-06-06T09:10:56.512Z,64.15
2017-06-06T09:11:37.881Z,64.15
2017-06-06T09:12:18.308Z,64.05
2017-06-06T09:13:00.720Z,63.76
2017-06-06T09:13:41.135Z,64.15
2017-06-06T09:14:21.520Z,63.76
2017-06-06T09:15:02.604Z,63.67
2017-06-06T09:15:43.920Z,64.05
2017-06-06T09:16:24.409Z,64.15
2017-06-06T09:17:06.717Z,63.86
2017-06-06T09:17:47.740Z,63.76
2017-06-06T09:18:28.230Z,63.76
2017-06-06T09:19:10.019Z,63.76
2017-06-06T09:19:54.914Z,63.92
2017-06-06T09:20:35.337Z,63.83
2017-06-06T09:21:17.609Z,63.92
2017-06-06T09:21:58.962Z,63.64
2017-06-06T09:22:39.438Z,63.92
2017-06-06T09:23:19.776Z,64.02
2017-06-06T09:24:03.246Z,63.92
2017-06-06T09:24:44.729Z,64.12
2017-06-06T09:25:25.659Z,64.12
2017-06-06T09:26:11.193Z,64.22
2017-06-06T09:27:08.080Z,64.22
2017-06-06T09:27:49.816Z,64.37
2017-06-06T09:28:34.097Z,64.5
2017-06-06T09:31:00.541Z,64.37
2017-06-06T09:31:45.373Z,64.85
2017-06-06T09:32:29.432Z,65.14
2017-06-06T09:33:09.998Z,65.33
2017-06-06T09:33:52.258Z,64.95
2017-06-06T09:35:55.478Z,65.23
2017-06-06T09:37:52.695Z,65.33
2017-06-06T09:38:39.046Z,65.33
2017-06-06T09:39:20.008Z,65.14
2017-06-06T09:40:02.999Z,65.14
2017-06-06T09:40:45.001Z,65.05
2017-06-06T09:41:27.295Z,64.85
2017-06-06T09:42:08.370Z,64.37
2017-06-06T09:42:49.623Z,64.09
2017-06-06T09:43:30.060Z,64.12
2017-06-06T09:44:11.919Z,64.02
2017-06-06T09:44:54.527Z,63.73
2017-06-06T09:45:35.604Z,63.73
2017-06-06T09:46:19.374Z,62.96
2017-06-06T09:47:00.149Z,63.15
2017-06-06T09:47:41.212Z,63.35
2017-06-06T09:48:22.405Z,63.73
2017-06-06T09:49:03.801Z,63.45
2017-06-06T09:49:45.133Z,63.15
2017-06-06T09:51:35.742Z,62.96
2017-06-06T09:52:17.140Z,62.99
2017-06-06T09:52:57.602Z,62.61
2017-06-06T09:53:38.025Z,62.41
2017-06-06T09:54:21.314Z,62.32
2017-06-06T09:55:01.759Z,61.94
2017-06-06T09:56:51.150Z,61.77
2017-06-06T09:57:31.619Z,62.13
2017-06-06T09:58:13.550Z,61.65
2017-06-06T09:58:56.375Z,61.97
2017-06-06T09:59:36.803Z,61.87
2017-06-06T10:00:17.255Z,61.68
2017-06-06T10:00:57.685Z,61.42
2017-06-06T10:01:38.031Z,61.22
2017-06-06T10:02:18.486Z,60.65
2017-06-06T10:02:58.916Z,59.97
2017-06-06T10:03:39.591Z,59.88
2017-06-06T10:04:20.093Z,59.3
2017-06-06T10:05:00.512Z,59.4
2017-06-06T10:05:41.825Z,59.49
2017-06-06T10:06:23.123Z,59.49
2017-06-06T10:07:05.370Z,59.49
2017-06-06T10:07:53.594Z,59.49
2017-06-06T10:11:42.270Z,58.2
2017-06-06T10:12:22.746Z,58.69
2017-06-06T10:13:03.551Z,58.01
2017-06-06T10:13:44.415Z,57.92
2017-06-06T10:14:26.597Z,58.01
2017-06-06T10:15:08.045Z,58.2
2017-06-06T10:15:48.532Z,57.92
2017-06-06T10:16:28.987Z,57.62
2017-06-06T10:17:10.256Z,57.56
2017-06-06T10:17:56.143Z,57.75
2017-06-06T10:18:36.481Z,57.65
2017-06-06T10:19:16.938Z,56.88
2017-06-06T10:19:57.378Z,56.69
2017-06-06T10:20:37.792Z,57.24
2017-06-06T10:21:19.066Z,56.57
2017-06-06T10:22:02.244Z,56.4
2017-06-06T10:22:42.712Z,56.37
2017-06-06T10:23:24.579Z,56.69
2017-06-06T10:24:05.095Z,56.69
2017-06-06T10:24:45.607Z,56.69
2017-06-06T10:26:33.934Z,56.24
2017-06-06T10:27:16.741Z,55.49
2017-06-06T10:27:57.197Z,55.68
2017-06-06T10:28:39.584Z,55.33
2017-06-06T10:30:55.819Z,53.78
2017-06-06T10:31:36.615Z,54.14
2017-06-06T10:32:17.033Z,53.75
2017-06-06T10:32:58.148Z,54.05
2017-06-06T10:33:41.396Z,54.33
2017-06-06T10:34:21.907Z,54.14
2017-06-06T10:35:02.323Z,54.14
2017-06-06T10:35:43.453Z,54.14
2017-06-06T10:36:25.367Z,54.14
2017-06-06T10:37:05.770Z,53.95
2017-06-06T10:39:20.666Z,54.79
2017-06-06T10:40:01.434Z,55.54
2017-06-06T10:40:41.889Z,55.54
2017-06-06T10:41:24.093Z,56.27
2017-06-06T10:42:06.113Z,57.05
2017-06-06T10:42:47.245Z,56.76
2017-06-06T10:43:27.689Z,57.53
2017-06-06T10:44:08.653Z,57.24
2017-06-06T10:44:49.806Z,57.24
2017-06-06T10:45:31.209Z,57.07
2017-06-06T10:46:13.668Z,57.01
2017-06-06T10:46:55.815Z,56.04
2017-06-06T10:47:36.247Z,55.27
2017-06-06T10:48:16.777Z,55.66
2017-06-06T10:48:58.706Z,55.66
2017-06-06T10:49:39.109Z,55.4
2017-06-06T10:50:19.545Z,55.4
2017-06-06T10:50:59.940Z,54.82
2017-06-06T10:51:40.378Z,55.01
2017-06-06T10:52:22.593Z,54.33
2017-06-06T10:53:02.978Z,54.91
2017-06-06T10:53:43.437Z,54.91
2017-06-06T10:54:24.789Z,54.72
2017-06-06T10:55:05.201Z,54.72
2017-06-06T10:55:46.289Z,54.82
2017-06-06T10:56:26.743Z,54.88
2017-06-06T10:57:11.754Z,54.98
2017-06-06T10:57:53.132Z,54.98
2017-06-06T10:58:33.508Z,55.05
2017-06-06T10:59:14.789Z,55.34
2017-06-06T11:01:04.693Z,56.27
2017-06-06T11:01:45.180Z,56.37
2017-06-06T11:02:27.412Z,56.73
2017-06-06T11:03:07.773Z,56.73
2017-06-06T11:03:48.218Z,57.21
2017-06-06T11:04:28.712Z,57.67
2017-06-06T11:05:09.684Z,57.67
2017-06-06T11:05:50.889Z,57.47
2017-06-06T11:08:04.679Z,57.95
2017-06-06T11:08:45.051Z,57.86
2017-06-06T11:09:25.474Z,57.67
2017-06-06T11:10:05.878Z,58.22
2017-06-06T11:10:46.330Z,57.92
2017-06-06T11:11:26.739Z,58.31
2017-06-06T11:12:07.151Z,58.28
2017-06-06T11:12:47.599Z,58.95
2017-06-06T11:13:28.037Z,59.15
2017-06-06T11:14:11.846Z,59.53
2017-06-06T11:14:53.935Z,59.69
2017-06-06T11:15:35.762Z,59.5
2017-06-06T11:16:16.823Z,59.79
2017-06-06T11:16:57.275Z,59.69
2017-06-06T11:17:37.680Z,59.6
2017-06-06T11:18:18.042Z,59.79
2017-06-06T11:18:58.462Z,60.34
2017-06-06T11:21:11.885Z,60.72
2017-06-06T11:21:53.573Z,60.82
2017-06-06T11:22:34.063Z,60.72
2017-06-06T11:23:15.072Z,60.94
2017-06-06T11:23:57.000Z,61.14
2017-06-06T11:24:37.500Z,60.94
2017-06-06T11:25:17.822Z,60.56
2017-06-06T11:27:32.481Z,59.72
2017-06-06T11:28:13.058Z,59.66
2017-06-06T11:28:56.240Z,59.27
2017-06-06T11:29:36.679Z,59.47
2017-06-06T11:30:17.067Z,59.56
2017-06-06T11:30:58.311Z,59.85
2017-06-06T11:32:47.898Z,60.39
2017-06-06T11:33:29.434Z,59.63
2017-06-06T11:35:18.880Z,61.2
2017-06-06T11:37:06.507Z,63.09
2017-06-06T11:37:47.125Z,63.64
2017-06-06T11:38:27.514Z,64.85
2017-06-06T11:39:07.953Z,66
2017-06-06T11:39:49.169Z,67.6
2017-06-06T11:41:43.411Z,70.47
2017-06-06T11:42:25.940Z,72.19
2017-06-06T11:43:06.589Z,73.02
2017-06-06T11:45:30.672Z,75.18
2017-06-06T11:52:29.579Z,80.69
2017-06-06T11:53:19.128Z,81.26
2017-06-06T11:54:08.528Z,81.55
2017-06-06T11:54:57.247Z,81.65
2017-06-06T11:55:45.698Z,81.65
2017-06-06T11:56:34.695Z,82.12
2017-06-06T11:57:22.797Z,82.22
2017-06-06T12:03:11.414Z,83.4
2017-06-06T12:04:00.461Z,83.89
2017-06-06T12:04:49.647Z,84.12
2017-06-06T12:05:38.752Z,84.5
2017-06-06T12:08:07.215Z,86.08
2017-06-06T12:08:56.095Z,86.55
2017-06-06T12:09:44.733Z,86.6
2017-06-06T12:10:33.898Z,86.21
2017-06-06T12:11:22.782Z,87.02
2017-06-06T12:12:11.423Z,87.98
2017-06-06T12:13:00.069Z,87.55
2017-06-06T12:13:48.839Z,87.11
2017-06-06T12:14:37.327Z,86.63
2017-06-06T12:15:26.202Z,86.72
2017-06-06T12:16:14.439Z,86.63
2017-06-06T12:17:03.345Z,86.92
2017-06-06T12:17:50.973Z,86.63
2017-06-06T12:18:39.842Z,86.92
2017-06-06T12:19:26.063Z,87.74
2017-06-06T12:20:07.073Z,88.12
2017-06-06T12:20:48.357Z,88.22
2017-06-06T12:21:29.531Z,88.6
2017-06-06T12:22:09.968Z,89.42
2017-06-06T12:22:51.161Z,89.13
2017-06-06T12:23:31.590Z,90
2017-06-06T12:24:12.670Z,90.28
2017-06-06T12:24:53.103Z,90.38
2017-06-06T12:25:34.365Z,90.47
2017-06-06T12:26:17.410Z,90.76
2017-06-06T12:27:01.391Z,91.29
2017-06-06T12:27:41.845Z,91.1
2017-06-06T12:28:24.352Z,91.29
2017-06-06T12:29:04.750Z,91.77
2017-06-06T12:29:45.239Z,91.58
2017-06-06T12:30:26.475Z,92.35
2017-06-06T12:31:09.109Z,92.15
2017-06-06T12:31:50.927Z,91.96
2017-06-06T12:32:31.479Z,92.44
2017-06-06T12:33:14.599Z,92.54
2017-06-06T12:33:56.596Z,92.35
2017-06-06T12:34:38.920Z,92.92
2017-06-06T12:35:20.501Z,92.82
2017-06-06T12:36:01.127Z,92.73
2017-06-06T12:36:42.932Z,93.21
2017-06-06T12:37:24.420Z,93.49
2017-06-06T12:38:04.889Z,93.4
2017-06-06T12:38:45.322Z,93.69
2017-06-06T12:39:29.466Z,94.26
2017-06-06T12:40:09.918Z,93.73
2017-06-06T12:40:50.314Z,93.3
2017-06-06T12:41:30.793Z,93.02
2017-06-06T12:42:12.924Z,92.73
2017-06-06T12:44:06.053Z,92.54
2017-06-06T12:44:56.839Z,92.3
2017-06-06T12:45:47.760Z,92.78
2017-06-06T12:46:29.001Z,92.49
2017-06-06T12:47:09.446Z,92.97
2017-06-06T12:48:00.623Z,93.4
2017-06-06T12:48:45.176Z,93.54
2017-06-06T12:49:28.061Z,93.93
2017-06-06T12:50:09.225Z,93.64
2017-06-06T12:50:53.729Z,93.59
2017-06-06T12:51:38.612Z,93.79
2017-06-06T12:52:21.069Z,94.26
2017-06-06T12:53:03.248Z,94.07
2017-06-06T12:54:57.486Z,94.07
2017-06-06T12:55:44.473Z,94.74
2017-06-06T12:56:41.657Z,94.65
2017-06-06T12:57:23.550Z,94.36
2017-06-06T12:58:03.969Z,94.45
2017-06-06T12:58:44.988Z,94.55
2017-06-06T12:59:25.382Z,94.93
2017-06-06T13:00:07.421Z,95.03
2017-06-06T13:00:48.393Z,95.12
2017-06-06T13:01:28.831Z,95.79
2017-06-06T13:02:13.038Z,95.22
2017-06-06T13:02:53.476Z,94.79
2017-06-06T13:03:35.738Z,95.07
2017-06-06T13:04:16.213Z,94.65
2017-06-06T13:04:56.569Z,95.17
2017-06-06T13:05:37.185Z,95.94
2017-06-06T13:06:18.592Z,95.56
2017-06-06T13:06:58.995Z,95.65
2017-06-06T13:07:40.400Z,96.13
2017-06-06T13:08:21.901Z,96.03
2017-06-06T13:09:02.327Z,96.03
2017-06-06T13:09:44.389Z,95.79
2017-06-06T13:10:25.047Z,95.51
2017-06-06T13:11:06.352Z,95.98
2017-06-06T13:11:46.784Z,95.98
2017-06-06T13:12:30.484Z,95.89
2017-06-06T13:13:11.568Z,96.13
2017-06-06T13:13:52.033Z,96.42
2017-06-06T13:14:32.366Z,96.32
2017-06-06T13:15:12.785Z,96.51
2017-06-06T13:15:54.993Z,95.84
2017-06-06T13:16:35.349Z,95.89
2017-06-06T13:17:15.761Z,95.7
2017-06-06T13:17:56.785Z,95.89
2017-06-06T13:18:38.140Z,95.7
2017-06-06T13:19:18.838Z,95.26
2017-06-06T13:19:59.368Z,95.65
2017-06-06T13:20:40.577Z,95.75
2017-06-06T13:21:21.034Z,95.84
2017-06-06T13:22:01.483Z,94.88
2017-06-06T13:22:43.607Z,95.21
2017-06-06T13:23:24.055Z,95.89
2017-06-06T13:24:04.505Z,96.22
2017-06-06T13:24:45.916Z,96.22
2017-06-06T13:27:09.661Z,95.5
2017-06-06T13:27:51.877Z,94.83
2017-06-06T13:28:32.264Z,94.78
2017-06-06T13:29:13.212Z,94.45
2017-06-06T13:29:53.338Z,94.35
2017-06-06T13:30:33.618Z,93.96
2017-06-06T13:31:14.698Z,94.54
2017-06-06T13:31:55.990Z,94.06
2017-06-06T13:32:36.386Z,94.26
2017-06-06T13:33:16.824Z,94.16
2017-06-06T13:33:57.172Z,94.78
2017-06-06T13:34:38.339Z,94.98
2017-06-06T13:35:19.464Z,94.98
2017-06-06T13:35:59.829Z,95.75
2017-06-06T13:36:42.283Z,96.03
2017-06-06T13:37:24.483Z,95.36
2017-06-06T13:38:05.815Z,95.84
2017-06-06T13:38:46.242Z,94.98
2017-06-06T13:39:27.340Z,95.45
2017-06-06T13:40:07.681Z,94.98
2017-06-06T13:40:48.171Z,95.36
2017-06-06T13:41:28.551Z,95.36
2017-06-06T13:42:09.014Z,95.36
2017-06-06T13:42:49.390Z,95.45
2017-06-06T13:43:29.813Z,95.45
2017-06-06T13:44:11.264Z,95.36
2017-06-06T13:44:51.707Z,95.36
2017-06-06T13:45:32.133Z,95.26
2017-06-06T13:46:12.526Z,96.03
2017-06-06T13:46:52.955Z,95.94
2017-06-06T13:47:34.213Z,96.22
2017-06-06T13:48:14.697Z,96.22
2017-06-06T13:48:55.918Z,95.36
2017-06-06T13:49:36.303Z,95.36
2017-06-06T13:50:16.718Z,95.21
2017-06-06T13:50:57.100Z,95.21
2017-06-06T13:51:37.486Z,96.27
2017-06-06T13:52:17.930Z,96.37
2017-06-06T13:52:58.334Z,95.45
2017-06-06T13:53:38.781Z,96.13
2017-06-06T13:54:19.914Z,95.65
2017-06-06T13:55:00.296Z,95.07
2017-06-06T13:55:40.706Z,94.98
2017-06-06T13:56:21.152Z,94.59
2017-06-06T13:57:01.585Z,94.59
2017-06-06T13:57:41.995Z,93.91
2017-06-06T13:58:22.393Z,93.58
2017-06-06T14:00:40.987Z,94.45
2017-06-06T14:01:22.006Z,94.54
2017-06-06T14:02:03.146Z,93.96
2017-06-06T14:02:43.546Z,94.25
2017-06-06T14:03:24.001Z,93.38
2017-06-06T14:04:05.351Z,93.58
2017-06-06T14:04:46.587Z,93.19
2017-06-06T14:05:27.576Z,92.91
2017-06-06T14:06:07.942Z,92.33
2017-06-06T14:06:48.369Z,91.27
2017-06-06T14:07:29.133Z,91.56
2017-06-06T14:08:09.523Z,90.89
2017-06-06T14:08:49.985Z,90.5
2017-06-06T14:09:30.396Z,90.21
2017-06-06T14:10:11.594Z,90.41
2017-06-06T14:10:52.011Z,90.21
2017-06-06T14:11:33.331Z,89.92
2017-06-06T14:12:14.020Z,90.21
2017-06-06T14:12:56.343Z,90.21
2017-06-06T14:13:39.101Z,89.92
2017-06-06T14:14:20.674Z,89.54
2017-06-06T14:16:35.619Z,89.44
2017-06-06T14:17:15.878Z,89.15
2017-06-06T14:17:56.325Z,89.44
2017-06-06T14:18:36.728Z,89.3
2017-06-06T14:19:19.080Z,89.88
2017-06-06T14:19:59.532Z,89.69
2017-06-06T14:20:39.923Z,90.07
2017-06-06T14:21:20.303Z,90.55
2017-06-06T14:22:00.765Z,90.89
2017-06-06T14:22:41.173Z,91.36
2017-06-06T14:23:21.570Z,91.36
2017-06-06T14:24:01.985Z,91.08
2017-06-06T14:24:42.441Z,91.17
2017-06-06T14:25:22.853Z,90.21
2017-06-06T14:26:03.250Z,90.21
2017-06-06T14:26:43.702Z,90.21
2017-06-06T14:27:24.220Z,89.83
2017-06-06T14:28:04.686Z,89.35
2017-06-06T14:28:45.094Z,89.64
2017-06-06T14:29:26.057Z,89.83
2017-06-06T14:30:08.241Z,90.12
2017-06-06T14:30:49.922Z,89.73
2017-06-06T14:31:30.294Z,89.4
2017-06-06T14:32:10.690Z,89.88
2017-06-06T14:32:52.049Z,89.44
2017-06-06T14:33:32.439Z,89.92
2017-06-06T14:34:12.919Z,89.54
2017-06-06T14:34:53.379Z,89.44
2017-06-06T14:35:33.786Z,89.83
2017-06-06T14:36:14.950Z,89.44
2017-06-06T14:36:55.384Z,88.96
2017-06-06T14:37:35.745Z,87.62
2017-06-06T14:38:16.148Z,86.85
2017-06-06T14:38:56.580Z,86.75
2017-06-06T14:39:36.969Z,86.75
2017-06-06T14:40:17.378Z,86.18
2017-06-06T14:40:57.879Z,86.36
2017-06-06T14:41:38.295Z,85.69
2017-06-06T14:42:18.716Z,85.88
2017-06-06T14:42:59.255Z,85.98
2017-06-06T14:43:39.726Z,85.5
2017-06-06T14:44:20.090Z,85.11
2017-06-06T14:45:00.477Z,84.34
2017-06-06T14:45:40.935Z,84.44
2017-06-06T14:46:21.404Z,84.63
2017-06-06T14:47:01.997Z,83.96
2017-06-06T14:47:42.275Z,83.67
2017-06-06T14:48:22.761Z,83.96
2017-06-06T14:49:03.225Z,84.06
2017-06-06T14:49:43.606Z,83.58
2017-06-06T14:50:24.058Z,83.67
2017-06-06T14:51:04.436Z,83.67
2017-06-06T14:51:45.624Z,84.06
2017-06-06T14:52:26.000Z,82.81
2017-06-06T14:53:06.386Z,83.09
2017-06-06T14:53:47.174Z,82.81
2017-06-06T14:54:27.615Z,82.81
2017-06-06T14:55:08.012Z,83.19
2017-06-06T14:55:48.592Z,83
2017-06-06T14:56:29.034Z,82.81
2017-06-06T14:57:09.498Z,83.29
2017-06-06T14:57:49.915Z,82.75
2017-06-06T14:58:31.352Z,81.98
2017-06-06T14:59:11.830Z,81.5
2017-06-06T14:59:52.244Z,81.12
2017-06-06T15:00:33.454Z,81.3
2017-06-06T15:01:14.787Z,80.54
2017-06-06T15:01:55.209Z,81.3
2017-06-06T15:02:35.658Z,79.96
2017-06-06T15:03:16.109Z,79.67
2017-06-06T15:03:56.552Z,78.81
2017-06-06T15:04:37.064Z,78.03
2017-06-06T15:05:17.499Z,78.13
2017-06-06T15:05:57.902Z,78.13
2017-06-06T15:06:38.364Z,78.19
2017-06-06T15:07:18.846Z,78.77
2017-06-06T15:07:59.253Z,78.86
2017-06-06T15:08:40.691Z,78.96